createdAt,value
2018-09-23T00:00:16.298Z,98.08
2018-09-23T00:01:16.273Z,98.47
2018-09-23T00:02:16.291Z,99.04
2018-09-23T00:03:16.312Z,99.04
2018-09-23T00:05:16.350Z,98.94
2018-09-23T00:06:16.370Z,99.32
2018-09-23T00:07:16.392Z,99.42
2018-09-23T00:08:16.410Z,99.9
2018-09-23T00:10:16.454Z,99.61
2018-09-23T00:11:16.475Z,99.99
2018-09-23T00:12:16.504Z,99.99
2018-09-23T00:13:16.515Z,99.99
2018-09-23T00:14:16.545Z,99.99
2018-09-23T00:15:16.556Z,99.99
2018-09-23T00:16:31.237Z,99.9
2018-09-23T00:17:16.596Z,99.99
2018-09-23T00:18:16.616Z,99.99
2018-09-23T00:19:16.638Z,99.99
2018-09-23T00:20:16.661Z,99.99
2018-09-23T00:21:16.678Z,99.99
2018-09-23T00:23:16.720Z,99.61
2018-09-23T00:24:16.742Z,99.32
2018-09-23T00:25:16.765Z,99.9
2018-09-23T00:27:16.801Z,99.8
2018-09-23T00:28:16.825Z,99.71
2018-09-23T00:29:16.586Z,98.94
2018-09-23T00:30:16.862Z,99.32
2018-09-23T00:31:16.885Z,98.75
2018-09-23T00:32:31.565Z,98.27
2018-09-23T00:33:16.926Z,98.37
2018-09-23T00:34:16.944Z,97.99
2018-09-23T00:35:16.968Z,98.94
2018-09-23T00:37:17.008Z,98.27
2018-09-23T00:38:17.025Z,98.18
2018-09-23T00:39:17.050Z,97.89
2018-09-23T00:43:17.129Z,97.51
2018-09-23T00:44:17.148Z,97.61
2018-09-23T00:45:17.177Z,97.51
2018-09-23T00:46:17.196Z,97.42
2018-09-23T00:47:17.214Z,97.89
2018-09-23T00:48:31.891Z,97.71
2018-09-23T00:49:17.249Z,97.89
2018-09-23T00:50:17.015Z,97.71
2018-09-23T00:51:17.300Z,97.8
2018-09-23T00:52:17.311Z,97.42
2018-09-23T00:53:17.333Z,97.22
2018-09-23T00:54:17.354Z,97.42
2018-09-23T00:55:17.374Z,97.03
2018-09-23T00:56:17.138Z,97.42
2018-09-23T00:57:17.413Z,97.42
2018-09-23T00:59:17.456Z,97.32
2018-09-23T01:00:17.476Z,97.89
2018-09-23T01:01:17.497Z,97.61
2018-09-23T01:02:17.515Z,97.89
2018-09-23T01:03:17.536Z,97.61
2018-09-23T01:04:32.218Z,97.8
2018-09-23T01:05:17.580Z,97.71
2018-09-23T01:06:17.600Z,97.71
2018-09-23T01:07:17.624Z,97.61
2018-09-23T01:08:17.639Z,97.71
2018-09-23T01:09:17.660Z,97.51
2018-09-23T01:10:17.677Z,97.61
2018-09-23T01:11:17.702Z,97.61
2018-09-23T01:12:17.721Z,97.99
2018-09-23T01:13:17.484Z,97.13
2018-09-23T01:14:17.501Z,97.89
2018-09-23T01:15:17.783Z,97.71
2018-09-23T01:16:17.801Z,97.32
2018-09-23T01:17:17.821Z,97.03
2018-09-23T01:18:17.886Z,97.32
2018-09-23T01:19:32.525Z,97.42
2018-09-23T01:20:17.884Z,97.61
2018-09-23T01:21:17.649Z,97.32
2018-09-23T01:22:17.926Z,97.03
2018-09-23T01:24:17.973Z,97.42
2018-09-23T01:25:17.990Z,97.51
2018-09-23T01:26:18.007Z,97.42
2018-09-23T01:27:18.026Z,97.99
2018-09-23T01:28:18.046Z,97.99
2018-09-23T01:30:18.089Z,98.37
2018-09-23T01:31:17.853Z,98.37
2018-09-23T01:32:18.135Z,98.03
2018-09-23T01:33:18.151Z,97.94
2018-09-23T01:34:18.166Z,98.8
2018-09-23T01:35:18.190Z,98.8
2018-09-23T01:36:18.210Z,99.27
2018-09-23T01:38:18.252Z,99.56
2018-09-23T01:39:18.271Z,99.56
2018-09-23T01:40:18.289Z,99.66
2018-09-23T01:41:18.310Z,99.99
2018-09-23T01:42:18.330Z,99.66
2018-09-23T01:43:18.353Z,99.85
2018-09-23T01:45:18.134Z,99.99
2018-09-23T01:46:18.415Z,99.99
2018-09-23T01:47:18.438Z,99.99
2018-09-23T01:48:18.453Z,99.99
2018-09-23T01:49:18.214Z,99.99
2018-09-23T01:50:18.494Z,99.99
2018-09-23T01:51:33.173Z,99.99
2018-09-23T01:52:18.532Z,99.99
2018-09-23T01:53:18.559Z,99.99
2018-09-23T01:54:18.572Z,99.99
2018-09-23T01:55:18.595Z,99.99
2018-09-23T01:56:18.356Z,99.99
2018-09-23T01:57:18.377Z,99.99
2018-09-23T01:58:18.398Z,99.99
2018-09-23T01:59:18.416Z,99.99
2018-09-23T02:00:18.692Z,99.99
2018-09-23T02:01:18.713Z,99.99
2018-09-23T02:03:18.497Z,99.99
2018-09-23T02:04:18.778Z,99.99
2018-09-23T02:05:18.797Z,99.99
2018-09-23T02:06:18.815Z,99.99
2018-09-23T02:07:33.494Z,99.99
2018-09-23T02:08:18.855Z,99.99
2018-09-23T02:09:18.876Z,99.99
2018-09-23T02:10:18.896Z,99.99
2018-09-23T02:11:18.914Z,99.99
2018-09-23T02:12:18.677Z,99.99
2018-09-23T02:13:18.954Z,99.99
2018-09-23T02:14:18.976Z,99.99
2018-09-23T02:15:18.738Z,99.99
2018-09-23T02:17:19.036Z,99.99
2018-09-23T02:18:19.057Z,99.99
2018-09-23T02:19:19.078Z,99.99
2018-09-23T02:20:18.837Z,99.99
2018-09-23T02:21:19.320Z,99.99
2018-09-23T02:22:19.134Z,99.99
2018-09-23T02:23:33.813Z,99.99
2018-09-23T02:24:19.175Z,99.99
2018-09-23T02:25:19.200Z,99.99
2018-09-23T02:26:18.956Z,99.99
2018-09-23T02:27:19.245Z,99.99
2018-09-23T02:28:19.257Z,99.99
2018-09-23T02:30:19.311Z,99.99
2018-09-23T02:31:19.055Z,99.99
2018-09-23T02:32:19.350Z,99.99
2018-09-23T02:33:19.358Z,99.99
2018-09-23T02:34:19.375Z,99.99
2018-09-23T02:35:19.395Z,99.99
2018-09-23T02:36:19.414Z,99.99
2018-09-23T02:37:19.432Z,99.99
2018-09-23T02:38:19.468Z,99.99
2018-09-23T02:39:34.135Z,99.99
2018-09-23T02:40:19.496Z,99.99
2018-09-23T02:41:19.514Z,99.99
2018-09-23T02:42:19.541Z,99.99
2018-09-23T02:44:19.574Z,99.99
2018-09-23T02:45:19.592Z,99.99
2018-09-23T02:46:19.613Z,99.99
2018-09-23T02:47:19.632Z,99.99
2018-09-23T02:48:19.668Z,99.99
2018-09-23T02:49:19.676Z,99.99
2018-09-23T02:50:19.698Z,99.99
2018-09-23T02:51:19.711Z,99.99
2018-09-23T02:52:19.736Z,99.99
2018-09-23T02:53:19.766Z,99.99
2018-09-23T02:54:34.433Z,99.99
2018-09-23T02:55:19.793Z,99.99
2018-09-23T02:56:19.811Z,99.99
2018-09-23T02:57:19.831Z,99.99
2018-09-23T02:58:19.852Z,99.99
2018-09-23T02:59:19.872Z,99.99
2018-09-23T03:00:19.892Z,99.99
2018-09-23T03:01:19.910Z,99.99
2018-09-23T03:03:19.951Z,99.99
2018-09-23T03:04:19.970Z,99.99
2018-09-23T03:05:19.992Z,99.99
2018-09-23T03:06:20.011Z,99.99
2018-09-23T03:07:20.032Z,99.99
2018-09-23T03:08:20.049Z,99.99
2018-09-23T03:09:20.072Z,99.99
2018-09-23T03:10:20.089Z,99.99
2018-09-23T03:11:20.114Z,99.99
2018-09-23T03:12:20.127Z,99.99
2018-09-23T03:13:20.148Z,99.99
2018-09-23T03:14:20.170Z,99.99
2018-09-23T03:16:20.207Z,99.99
2018-09-23T03:17:20.229Z,99.99
2018-09-23T03:19:20.014Z,99.99
2018-09-23T03:20:20.289Z,99.99
2018-09-23T03:21:20.313Z,99.99
2018-09-23T03:22:20.326Z,99.99
2018-09-23T03:23:20.347Z,99.99
2018-09-23T03:24:20.368Z,99.99
2018-09-23T03:25:20.128Z,99.99
2018-09-23T03:26:35.067Z,99.99
2018-09-23T03:27:20.425Z,99.99
2018-09-23T03:28:20.447Z,99.99
2018-09-23T03:29:20.477Z,99.99
2018-09-23T03:30:20.491Z,99.99
2018-09-23T03:31:20.527Z,99.99
2018-09-23T03:32:20.526Z,99.99
2018-09-23T03:33:20.547Z,99.99
2018-09-23T03:34:20.564Z,99.99
2018-09-23T03:35:20.599Z,99.99
2018-09-23T03:36:20.609Z,99.99
2018-09-23T03:37:20.635Z,99.99
2018-09-23T03:38:20.383Z,99.99
2018-09-23T03:39:20.662Z,99.99
2018-09-23T03:40:20.685Z,99.99
2018-09-23T03:41:20.701Z,99.99
2018-09-23T03:42:35.388Z,99.99
2018-09-23T03:43:20.740Z,99.99
2018-09-23T03:44:20.760Z,99.99
2018-09-23T03:45:20.779Z,99.99
2018-09-23T03:46:20.803Z,99.99
2018-09-23T03:47:20.821Z,99.99
2018-09-23T03:48:20.581Z,99.99
2018-09-23T03:49:20.859Z,99.99
2018-09-23T03:50:20.620Z,99.99
2018-09-23T03:51:20.901Z,99.99
2018-09-23T03:52:20.918Z,99.99
2018-09-23T03:53:20.942Z,99.99
2018-09-23T03:54:20.957Z,99.99
2018-09-23T03:55:20.976Z,99.99
2018-09-23T03:56:20.996Z,99.99
2018-09-23T03:57:21.015Z,99.99
2018-09-23T03:58:35.698Z,99.99
2018-09-23T03:59:21.056Z,99.99
2018-09-23T04:00:20.818Z,99.99
2018-09-23T04:01:21.092Z,99.99
2018-09-23T04:02:21.119Z,99.99
2018-09-23T04:03:21.134Z,99.99
2018-09-23T04:04:21.153Z,99.99
2018-09-23T04:05:21.171Z,99.99
2018-09-23T04:07:21.216Z,99.99
2018-09-23T04:08:21.234Z,99.99
2018-09-23T04:09:21.252Z,99.99
2018-09-23T04:10:21.272Z,99.99
2018-09-23T04:11:21.290Z,99.99
2018-09-23T04:12:21.325Z,99.99
2018-09-23T04:13:21.327Z,99.99
2018-09-23T04:14:36.013Z,99.99
2018-09-23T04:15:21.368Z,99.99
2018-09-23T04:16:21.129Z,99.99
2018-09-23T04:17:21.407Z,99.99
2018-09-23T04:18:21.531Z,99.99
2018-09-23T04:19:21.454Z,99.99
2018-09-23T04:20:21.462Z,99.99
2018-09-23T04:21:21.483Z,99.99
2018-09-23T04:22:21.504Z,99.99
2018-09-23T04:24:21.284Z,99.99
2018-09-23T04:25:21.579Z,99.99
2018-09-23T04:26:21.584Z,99.99
2018-09-23T04:27:21.601Z,99.99
2018-09-23T04:28:21.618Z,99.99
2018-09-23T04:29:36.307Z,99.99
2018-09-23T04:30:21.661Z,99.99
2018-09-23T04:31:21.686Z,99.99
2018-09-23T04:32:21.702Z,99.99
2018-09-23T04:33:21.727Z,99.99
2018-09-23T04:34:21.738Z,99.99
2018-09-23T04:35:21.757Z,99.99
2018-09-23T04:36:21.777Z,99.99
2018-09-23T04:37:21.798Z,99.99
2018-09-23T04:38:21.558Z,99.99
2018-09-23T04:39:21.855Z,99.99
2018-09-23T04:40:21.864Z,99.99
2018-09-23T04:41:21.875Z,99.99
2018-09-23T04:42:21.634Z,99.99
2018-09-23T04:43:21.915Z,99.99
2018-09-23T04:44:21.934Z,99.99
2018-09-23T04:45:21.955Z,99.99
2018-09-23T04:46:21.971Z,99.99
2018-09-23T04:47:21.998Z,99.99
2018-09-23T04:48:22.010Z,99.99
2018-09-23T04:49:22.034Z,99.99
2018-09-23T04:50:22.049Z,99.99
2018-09-23T04:51:22.072Z,99.99
2018-09-23T04:52:22.089Z,99.99
2018-09-23T04:53:21.853Z,99.99
2018-09-23T04:55:22.228Z,99.99
2018-09-23T04:56:22.168Z,99.99
2018-09-23T04:57:22.193Z,99.99
2018-09-23T04:58:22.206Z,99.99
2018-09-23T04:59:21.969Z,99.99
2018-09-23T05:00:22.247Z,99.99
2018-09-23T05:01:36.929Z,99.99
2018-09-23T05:02:22.288Z,99.99
2018-09-23T05:03:22.308Z,99.99
2018-09-23T05:04:22.067Z,99.99
2018-09-23T05:05:22.345Z,99.99
2018-09-23T05:06:22.366Z,99.99
2018-09-23T05:07:22.384Z,99.99
2018-09-23T05:08:22.408Z,99.99
2018-09-23T05:11:22.467Z,99.99
2018-09-23T05:12:22.482Z,99.99
2018-09-23T05:13:22.246Z,99.99
2018-09-23T05:14:22.524Z,99.99
2018-09-23T05:15:22.541Z,99.99
2018-09-23T05:16:22.565Z,99.99
2018-09-23T05:17:37.243Z,99.99
2018-09-23T05:18:22.345Z,99.99
2018-09-23T05:19:22.621Z,99.99
2018-09-23T05:20:22.638Z,99.99
2018-09-23T05:21:22.660Z,99.99
2018-09-23T05:22:22.689Z,99.99
2018-09-23T05:23:22.802Z,99.99
2018-09-23T05:24:22.463Z,99.99
2018-09-23T05:25:22.746Z,99.99
2018-09-23T05:26:22.505Z,99.99
2018-09-23T05:27:22.809Z,99.99
2018-09-23T05:28:22.801Z,99.99
2018-09-23T05:29:22.562Z,99.99
2018-09-23T05:30:22.581Z,99.99
2018-09-23T05:31:22.861Z,99.99
2018-09-23T05:32:22.882Z,99.99
2018-09-23T05:33:37.559Z,99.99
2018-09-23T05:34:22.919Z,99.99
2018-09-23T05:35:23.061Z,99.99
2018-09-23T05:36:22.963Z,99.99
2018-09-23T05:37:22.977Z,99.99
2018-09-23T05:39:23.019Z,99.99
2018-09-23T05:40:23.037Z,99.99
2018-09-23T05:41:23.064Z,99.99
2018-09-23T05:42:23.095Z,99.99
2018-09-23T05:43:23.104Z,99.99
2018-09-23T05:44:23.117Z,99.99
2018-09-23T05:45:23.140Z,99.99
2018-09-23T05:46:23.158Z,99.99
2018-09-23T05:47:23.329Z,99.99
2018-09-23T05:48:23.195Z,99.99
2018-09-23T05:49:37.877Z,99.99
2018-09-23T05:50:23.236Z,99.99
2018-09-23T05:51:23.261Z,99.99
2018-09-23T05:52:23.278Z,99.99
2018-09-23T05:53:23.314Z,99.99
2018-09-23T05:54:23.317Z,99.99
2018-09-23T05:55:23.346Z,99.99
2018-09-23T05:56:23.357Z,99.99
2018-09-23T05:58:23.396Z,99.99
2018-09-23T05:59:23.418Z,99.99
2018-09-23T06:00:23.443Z,99.99
2018-09-23T06:01:23.458Z,99.99
2018-09-23T06:02:23.477Z,99.99
2018-09-23T06:03:23.500Z,99.99
2018-09-23T06:04:38.181Z,99.99
2018-09-23T06:05:23.545Z,99.99
2018-09-23T06:06:23.560Z,99.99
2018-09-23T06:07:23.325Z,99.99
2018-09-23T06:08:23.601Z,99.99
2018-09-23T06:09:23.620Z,99.99
2018-09-23T06:11:23.403Z,99.99
2018-09-23T06:12:23.682Z,99.99
2018-09-23T06:14:23.723Z,99.99
2018-09-23T06:15:23.842Z,99.99
2018-09-23T06:16:23.765Z,99.99
2018-09-23T06:17:23.789Z,99.99
2018-09-23T06:18:23.853Z,99.99
2018-09-23T06:19:23.825Z,99.99
2018-09-23T06:20:23.844Z,99.99
2018-09-23T06:21:23.656Z,99.66
2018-09-23T06:22:23.935Z,99.66
2018-09-23T06:23:23.907Z,99.76
2018-09-23T06:24:23.925Z,99.47
2018-09-23T06:25:24.135Z,99.08
2018-09-23T06:26:23.974Z,98.9
2018-09-23T06:27:23.987Z,98.61
2018-09-23T06:28:24.010Z,98.13
2018-09-23T06:30:24.148Z,98.13
2018-09-23T06:31:24.078Z,98.23
2018-09-23T06:32:24.094Z,98.23
2018-09-23T06:33:24.118Z,97.56
2018-09-23T06:34:23.871Z,97.47
2018-09-23T06:35:23.897Z,96.8
2018-09-23T06:36:38.832Z,96.66
2018-09-23T06:37:23.933Z,96.51
2018-09-23T06:39:24.233Z,96.08
2018-09-23T06:40:24.253Z,95.98
2018-09-23T06:41:24.274Z,96.27
2018-09-23T06:42:24.296Z,95.7
2018-09-23T06:43:24.316Z,95.51
2018-09-23T06:44:24.337Z,95.03
2018-09-23T06:45:24.366Z,94.74
2018-09-23T06:47:24.401Z,94.46
2018-09-23T06:48:24.421Z,94.17
2018-09-23T06:49:24.185Z,93.79
2018-09-23T06:50:24.462Z,93.88
2018-09-23T06:51:24.488Z,93.65
2018-09-23T06:52:39.168Z,93.5
2018-09-23T06:53:24.526Z,92.97
2018-09-23T06:54:24.546Z,93.55
2018-09-23T06:55:24.568Z,92.88
2018-09-23T06:56:24.592Z,92.5
2018-09-23T06:57:24.848Z,92.02
2018-09-23T06:58:24.373Z,91.93
2018-09-23T06:59:24.658Z,92.02
2018-09-23T07:00:24.415Z,91.45
2018-09-23T07:03:24.737Z,91.06
2018-09-23T07:04:24.787Z,90.68
2018-09-23T07:05:24.786Z,90.68
2018-09-23T07:06:24.801Z,89.73
2018-09-23T07:07:24.566Z,90.2
2018-09-23T07:08:39.505Z,89.92
2018-09-23T07:09:24.865Z,90.39
2018-09-23T07:10:25.117Z,90.01
2018-09-23T07:11:24.909Z,89.96
2018-09-23T07:12:24.928Z,89.96
2018-09-23T07:13:24.951Z,89.29
2018-09-23T07:14:24.973Z,88.53
2018-09-23T07:15:24.737Z,88.15
2018-09-23T07:16:25.016Z,87.95
2018-09-23T07:18:25.069Z,87.38
2018-09-23T07:19:25.089Z,87.29
2018-09-23T07:20:25.150Z,87.29
2018-09-23T07:21:25.122Z,85.71
2018-09-23T07:22:25.145Z,85.65
2018-09-23T07:23:24.907Z,85.55
2018-09-23T07:24:39.855Z,84.31
2018-09-23T07:25:25.222Z,84.5
2018-09-23T07:26:25.238Z,83.93
2018-09-23T07:27:25.258Z,84.59
2018-09-23T07:28:25.274Z,84.41
2018-09-23T07:29:25.299Z,84.41
2018-09-23T07:30:25.063Z,83.93
2018-09-23T07:31:25.344Z,83.93
2018-09-23T07:32:25.107Z,83.93
2018-09-23T07:33:25.390Z,84.41
2018-09-23T07:34:25.412Z,84.22
2018-09-23T07:35:25.432Z,84.12
2018-09-23T07:36:25.454Z,84.17
2018-09-23T07:37:25.479Z,84.84
2018-09-23T07:38:25.509Z,84.31
2018-09-23T07:39:40.243Z,84.22
2018-09-23T07:40:25.546Z,84.22
2018-09-23T07:41:25.569Z,83.83
2018-09-23T07:42:25.592Z,82.92
2018-09-23T07:43:25.614Z,81.77
2018-09-23T07:44:25.637Z,81.48
2018-09-23T07:46:25.681Z,81.1
2018-09-23T07:47:25.707Z,80.9
2018-09-23T07:48:25.473Z,81.2
2018-09-23T07:50:25.774Z,80.27
2018-09-23T07:51:25.539Z,80.56
2018-09-23T07:52:25.820Z,80.27
2018-09-23T07:53:25.847Z,79.8
2018-09-23T07:54:25.608Z,79.51
2018-09-23T07:55:25.890Z,79.7
2018-09-23T07:56:25.708Z,79.32
2018-09-23T07:57:25.935Z,78.93
2018-09-23T07:58:25.700Z,78.74
2018-09-23T07:59:25.981Z,79.41
2018-09-23T08:00:26.008Z,79.6
2018-09-23T08:02:25.801Z,78.45
2018-09-23T08:03:26.230Z,78.74
2018-09-23T08:06:25.887Z,78.02
2018-09-23T08:07:26.167Z,78.3
2018-09-23T08:08:26.195Z,78.2
2018-09-23T08:09:26.214Z,77.44
2018-09-23T08:10:26.238Z,77.63
2018-09-23T08:11:40.922Z,76.86
2018-09-23T08:13:26.602Z,76.14
2018-09-23T08:14:26.423Z,75.65
2018-09-23T08:15:26.405Z,76.04
2018-09-23T08:16:26.377Z,75.65
2018-09-23T08:17:26.406Z,75.18
2018-09-23T08:18:26.166Z,74.89
2018-09-23T08:19:26.776Z,75.37
2018-09-23T08:20:26.910Z,75.46
2018-09-23T08:21:26.240Z,74.22
2018-09-23T08:22:26.529Z,74.31
2018-09-23T08:23:26.287Z,74.79
2018-09-23T08:24:26.578Z,74.89
2018-09-23T08:25:26.725Z,75.27
2018-09-23T08:26:26.664Z,75.08
2018-09-23T08:27:41.300Z,74.98
2018-09-23T08:28:26.662Z,74.69
2018-09-23T08:29:26.686Z,73.58
2018-09-23T08:30:26.714Z,73.68
2018-09-23T08:31:26.475Z,73.2
2018-09-23T08:32:26.755Z,72.81
2018-09-23T08:33:26.781Z,73.1
2018-09-23T08:34:26.806Z,72.91
2018-09-23T08:35:26.826Z,73.3
2018-09-23T08:36:26.851Z,73.49
2018-09-23T08:37:26.973Z,73.39
2018-09-23T08:38:26.896Z,73.58
2018-09-23T08:39:26.920Z,73.3
2018-09-23T08:40:26.944Z,73.39
2018-09-23T08:41:26.976Z,73.58
2018-09-23T08:42:26.995Z,72.91
2018-09-23T08:43:41.675Z,72.72
2018-09-23T08:44:27.044Z,73.26
2018-09-23T08:45:27.063Z,72.78
2018-09-23T08:46:27.287Z,72.49
2018-09-23T08:47:27.108Z,72.97
2018-09-23T08:48:27.408Z,72.33
2018-09-23T08:49:26.900Z,72.78
2018-09-23T08:50:27.177Z,73.16
2018-09-23T08:51:26.944Z,72.49
2018-09-23T08:52:27.274Z,72.3
2018-09-23T08:53:27.250Z,71.92
2018-09-23T08:54:27.269Z,72.39
2018-09-23T08:55:27.292Z,73.3
2018-09-23T08:56:27.064Z,72.24
2018-09-23T08:57:27.081Z,72.05
2018-09-23T08:58:27.463Z,71.76
2018-09-23T08:59:42.046Z,73.16
2018-09-23T09:00:27.414Z,73.13
2018-09-23T09:01:27.437Z,73.07
2018-09-23T09:02:27.454Z,73.93
2018-09-23T09:03:27.485Z,73.55
2018-09-23T09:04:27.243Z,73.65
2018-09-23T09:05:27.521Z,73.26
2018-09-23T09:06:27.548Z,73.58
2018-09-23T09:07:27.571Z,73.2
2018-09-23T09:08:27.343Z,71.28
2018-09-23T09:10:27.641Z,71.28
2018-09-23T09:11:27.861Z,71.28
2018-09-23T09:12:27.690Z,71.95
2018-09-23T09:13:27.708Z,73.1
2018-09-23T09:14:42.394Z,73
2018-09-23T09:15:27.499Z,73.1
2018-09-23T09:16:27.778Z,72.05
2018-09-23T09:17:27.811Z,72.05
2018-09-23T09:18:28.185Z,73.35
2018-09-23T09:19:27.592Z,72.72
2018-09-23T09:20:27.872Z,73.1
2018-09-23T09:21:27.637Z,72.53
2018-09-23T09:22:27.925Z,73
2018-09-23T09:23:27.940Z,72.63
2018-09-23T09:24:27.965Z,72.24
2018-09-23T09:25:27.986Z,72.33
2018-09-23T09:26:28.084Z,72.14
2018-09-23T09:27:28.033Z,72.14
2018-09-23T09:28:28.055Z,71.66
2018-09-23T09:29:28.088Z,71.37
2018-09-23T09:30:28.102Z,70.9
2018-09-23T09:31:28.125Z,70.9
2018-09-23T09:32:28.150Z,70.9
2018-09-23T09:33:28.173Z,70.51
2018-09-23T09:34:27.941Z,70.23
2018-09-23T09:35:28.024Z,69.01
2018-09-23T09:36:28.242Z,69.3
2018-09-23T09:37:28.263Z,67.86
2018-09-23T09:38:28.383Z,68.91
2018-09-23T09:39:28.312Z,68.24
2018-09-23T09:40:28.336Z,68.05
2018-09-23T09:41:28.359Z,67.57
2018-09-23T09:42:28.382Z,67.67
2018-09-23T09:43:28.405Z,68.24
2018-09-23T09:44:28.428Z,68.82
2018-09-23T09:45:28.457Z,68.34
2018-09-23T09:46:43.139Z,68.15
2018-09-23T09:47:28.240Z,68.28
2018-09-23T09:48:28.525Z,66.93
2018-09-23T09:49:28.547Z,66.64
2018-09-23T09:50:28.568Z,67.51
2018-09-23T09:51:28.333Z,67.67
2018-09-23T09:53:28.705Z,67.7
2018-09-23T09:54:28.669Z,67.61
2018-09-23T09:55:28.882Z,66.64
2018-09-23T09:57:28.731Z,66.9
2018-09-23T09:58:28.761Z,67
2018-09-23T09:59:28.778Z,68.28
2018-09-23T10:00:28.800Z,67.41
2018-09-23T10:01:28.824Z,66.64
2018-09-23T10:02:43.509Z,64.66
2018-09-23T10:03:28.876Z,64.76
2018-09-23T10:04:28.895Z,65.23
2018-09-23T10:05:28.661Z,65.43
2018-09-23T10:06:28.943Z,64.47
2018-09-23T10:07:28.975Z,63.64
2018-09-23T10:08:28.988Z,62.68
2018-09-23T10:09:29.013Z,63.79
2018-09-23T10:10:29.039Z,63.99
2018-09-23T10:11:29.193Z,63.64
2018-09-23T10:12:29.083Z,62.68
2018-09-23T10:13:29.108Z,61.52
2018-09-23T10:14:29.171Z,61.71
2018-09-23T10:15:29.157Z,61.71
2018-09-23T10:16:29.179Z,60.56
2018-09-23T10:17:29.203Z,60.56
2018-09-23T10:18:43.890Z,59.99
2018-09-23T10:19:29.249Z,59.99
2018-09-23T10:20:29.275Z,60.46
2018-09-23T10:21:29.296Z,60.94
2018-09-23T10:22:29.478Z,60.75
2018-09-23T10:23:29.624Z,60.78
2018-09-23T10:24:29.368Z,60.01
2018-09-23T10:26:29.414Z,59.08
2018-09-23T10:27:29.441Z,59.37
2018-09-23T10:28:29.542Z,59.37
2018-09-23T10:29:29.487Z,59.56
2018-09-23T10:30:29.513Z,59.56
2018-09-23T10:31:29.382Z,58.7
2018-09-23T10:32:29.559Z,59.08
2018-09-23T10:33:29.672Z,59.17
2018-09-23T10:34:44.268Z,58.22
2018-09-23T10:35:29.374Z,57.54
2018-09-23T10:36:29.655Z,57.35
2018-09-23T10:37:29.681Z,56.67
2018-09-23T10:38:29.755Z,57.45
2018-09-23T10:39:29.726Z,57.73
2018-09-23T10:40:29.751Z,57.83
2018-09-23T10:41:29.872Z,57.57
2018-09-23T10:43:29.874Z,57.54
2018-09-23T10:45:29.874Z,59.92
2018-09-23T10:46:29.897Z,59.15
2018-09-23T10:47:29.931Z,59.82
2018-09-23T10:48:29.961Z,59.08
2018-09-23T10:49:44.631Z,58.12
2018-09-23T10:50:29.993Z,58.37
2018-09-23T10:51:30.026Z,59.82
2018-09-23T10:52:29.784Z,59.05
2018-09-23T10:53:30.069Z,57.42
2018-09-23T10:54:30.091Z,56.93
2018-09-23T10:55:29.915Z,58.25
2018-09-23T10:56:30.137Z,58.06
2018-09-23T10:57:29.905Z,58.57
2018-09-23T10:58:29.925Z,59.15
2018-09-23T10:59:30.353Z,59.6
2018-09-23T11:00:30.234Z,59.92
2018-09-23T11:01:30.258Z,60.3
2018-09-23T11:02:30.024Z,60.37
2018-09-23T11:03:30.307Z,60.82
2018-09-23T11:04:30.330Z,61.49
2018-09-23T11:05:30.357Z,61.97
2018-09-23T11:06:30.383Z,60.72
2018-09-23T11:07:30.569Z,60.63
2018-09-23T11:08:30.425Z,60.78
2018-09-23T11:09:30.449Z,60.69
2018-09-23T11:10:30.473Z,61.17
2018-09-23T11:11:30.498Z,61.65
2018-09-23T11:12:30.521Z,61.55
2018-09-23T11:13:30.545Z,61.55
2018-09-23T11:14:30.569Z,62.29
2018-09-23T11:15:30.597Z,62.77
2018-09-23T11:16:30.614Z,64.09
2018-09-23T11:17:30.640Z,64.98
2018-09-23T11:18:30.666Z,64.89
2018-09-23T11:19:30.688Z,64.59
2018-09-23T11:20:30.723Z,65.27
2018-09-23T11:21:45.394Z,64.5
2018-09-23T11:22:30.757Z,65.08
2018-09-23T11:23:30.829Z,64.18
2018-09-23T11:24:30.807Z,64.56
2018-09-23T11:25:30.829Z,64.85
2018-09-23T11:26:30.851Z,64.47
2018-09-23T11:28:30.640Z,65.72
2018-09-23T11:29:30.923Z,67.25
2018-09-23T11:30:30.993Z,67.63
2018-09-23T11:31:30.709Z,67.92
2018-09-23T11:32:30.996Z,68.21
2018-09-23T11:33:31.015Z,70.32
2018-09-23T11:34:31.038Z,69.56
2018-09-23T11:35:31.061Z,69.42
2018-09-23T11:36:31.086Z,70.29
2018-09-23T11:37:45.768Z,71.72
2018-09-23T11:38:31.131Z,71.88
2018-09-23T11:39:31.157Z,72.64
2018-09-23T11:41:30.943Z,73.95
2018-09-23T11:42:31.224Z,74.91
2018-09-23T11:43:31.248Z,75.1
2018-09-23T11:44:31.269Z,75.29
2018-09-23T11:45:31.297Z,75.48
2018-09-23T11:48:31.361Z,76.15
2018-09-23T11:49:31.388Z,76.73
2018-09-23T11:50:31.411Z,77.4
2018-09-23T11:51:31.432Z,79.13
2018-09-23T11:52:31.454Z,78.45
2018-09-23T11:53:46.137Z,81.52
2018-09-23T11:54:31.242Z,81.62
2018-09-23T11:55:31.266Z,80.08
2018-09-23T11:56:31.548Z,79.22
2018-09-23T11:57:31.567Z,79.51
2018-09-23T11:58:31.590Z,79.89
2018-09-23T11:59:31.614Z,81.13
2018-09-23T12:00:31.636Z,81.04
2018-09-23T12:01:31.662Z,80.76
2018-09-23T12:02:31.684Z,81.62
2018-09-23T12:03:31.704Z,82.53
2018-09-23T12:04:31.765Z,82.53
2018-09-23T12:05:31.492Z,83.11
2018-09-23T12:06:31.771Z,82.15
2018-09-23T12:07:31.797Z,81.77
2018-09-23T12:08:31.849Z,84.06
2018-09-23T12:09:46.502Z,84.64
2018-09-23T12:10:32.007Z,84.16
2018-09-23T12:11:31.889Z,84.45
2018-09-23T12:12:31.906Z,84.74
2018-09-23T12:13:32.049Z,85.02
2018-09-23T12:14:31.696Z,86.55
2018-09-23T12:15:32.076Z,87.13
2018-09-23T12:16:31.742Z,87.13
2018-09-23T12:17:32.021Z,87.13
2018-09-23T12:18:32.171Z,87.13
2018-09-23T12:19:32.070Z,86.94
2018-09-23T12:20:32.092Z,86.41
2018-09-23T12:21:32.112Z,86.41
2018-09-23T12:22:32.137Z,88.23
2018-09-23T12:23:32.202Z,88.71
2018-09-23T12:24:46.851Z,89.95
2018-09-23T12:25:32.378Z,90.15
2018-09-23T12:26:32.232Z,90.34
2018-09-23T12:27:32.249Z,91.39
2018-09-23T12:28:32.014Z,90.82
2018-09-23T12:29:32.387Z,90.63
2018-09-23T12:30:32.058Z,90.53
2018-09-23T12:32:32.366Z,91.58
2018-09-23T12:33:32.384Z,91.77
2018-09-23T12:34:32.411Z,93.21
2018-09-23T12:35:32.429Z,92.92
2018-09-23T12:36:32.193Z,92.06
2018-09-23T12:37:32.473Z,93.93
2018-09-23T12:38:32.496Z,92.97
2018-09-23T12:39:32.629Z,93.93
2018-09-23T12:40:32.540Z,93.74
2018-09-23T12:41:32.304Z,93.16
2018-09-23T12:42:32.590Z,92.69
2018-09-23T12:43:32.606Z,94.5
2018-09-23T12:44:32.630Z,94.36
2018-09-23T12:46:32.677Z,95.51
2018-09-23T12:47:32.695Z,96.27
2018-09-23T12:48:32.466Z,96.47
2018-09-23T12:49:32.738Z,95.61
2018-09-23T12:50:32.765Z,95.41
2018-09-23T12:51:32.785Z,94.46
2018-09-23T12:52:32.806Z,94.26
2018-09-23T12:53:32.830Z,95.03
2018-09-23T12:54:32.851Z,95.17
2018-09-23T12:55:32.871Z,94.6
2018-09-23T12:56:47.555Z,95.07
2018-09-23T12:57:32.919Z,96.22
2018-09-23T12:58:32.939Z,95.94
2018-09-23T12:59:32.959Z,97.37
2018-09-23T13:00:32.983Z,97.56
2018-09-23T13:01:33.004Z,98.42
2018-09-23T13:02:33.136Z,99.28
2018-09-23T13:03:33.051Z,99.99
2018-09-23T13:05:33.091Z,99.99
2018-09-23T13:06:33.113Z,99.99
2018-09-23T13:07:33.137Z,99.99
2018-09-23T13:08:33.155Z,99.99
2018-09-23T13:09:33.179Z,99.99
2018-09-23T13:10:33.199Z,99.99
2018-09-23T13:11:33.221Z,99.99
2018-09-23T13:12:47.906Z,99.99
2018-09-23T13:13:33.272Z,99.99
2018-09-23T13:14:33.285Z,99.99
2018-09-23T13:15:33.313Z,99.99
2018-09-23T13:16:33.333Z,99.99
2018-09-23T13:17:33.352Z,99.99
2018-09-23T13:18:33.385Z,99.99
2018-09-23T13:19:33.609Z,99.99
2018-09-23T13:20:33.421Z,99.99
2018-09-23T13:21:33.446Z,99.99
2018-09-23T13:23:33.483Z,99.99
2018-09-23T13:24:33.506Z,99.99
2018-09-23T13:25:33.526Z,99.99
2018-09-23T13:26:33.548Z,99.99
2018-09-23T13:27:33.567Z,99.99
2018-09-23T13:28:48.278Z,99.99
2018-09-23T13:29:33.612Z,99.99
2018-09-23T13:30:33.633Z,99.99
2018-09-23T13:31:33.653Z,99.99
2018-09-23T13:32:33.417Z,99.99
2018-09-23T13:33:33.701Z,99.99
2018-09-23T13:34:33.719Z,99.99
2018-09-23T13:35:33.740Z,99.99
2018-09-23T13:36:33.760Z,99.99
2018-09-23T13:37:33.784Z,99.99
2018-09-23T13:40:33.848Z,99.99
2018-09-23T13:41:33.872Z,99.99
2018-09-23T13:42:33.892Z,99.99
2018-09-23T13:43:33.915Z,99.99
2018-09-23T13:44:48.593Z,99.99
2018-09-23T13:45:33.697Z,99.99
2018-09-23T13:46:34.015Z,99.99
2018-09-23T13:47:34.001Z,99.99
2018-09-23T13:48:34.018Z,99.99
2018-09-23T13:49:34.037Z,99.99
2018-09-23T13:50:33.802Z,99.99
2018-09-23T13:51:34.081Z,99.99